»·PEaware :: N4657 KSNA-KSNS

N4657 :: KSNA-KSNS

FLIGHT INFORMATION

Flight Status: Arrived
Operator: Privately registered:
United States
More flights under this callsign
Pilot: Daniel P. (20187)
Aircraft: PILATUS PC-12 EAGLE
(PC12)
More flights by this aircraft type
Origin: KSNA John Wayne-Orange Co
United States
Destination: KSNS Salinas Mun
United States
More flights between these airports :: More routes between these airports
Route: + SXC V27 VTU V485 FLW V485 ROM
File this flight plan on PilotEdge
Remarks:
Altitude:
(Current/Filed)
165ft
Speed:
(Current/Filed)
200kts
Departed: 06-Sep-18 08:36 AM
Arrived: 06-Sep-18 09:56 AM
Distance/Time
Traveled:
257nm/1:19
Distance/Time
To Go:
Arrived

Flight Plot

Page will automatically refresh every two minutes.

Flight plan parsing failed; only flown route is shown


Map Options




Map Legend


Flown Route
Filed Route
Departure Airport
Arrival Airport
Navaid (VOR, NDB)
Fix

Horizontal Profiles

Position Reports

Time Latitude Longitude Heading Altitude Ground
Speed
06-Sep-18 08:15 33.671201 -117.868019 211 60ft 0kts
06-Sep-18 08:16 33.671201 -117.868019 211 60ft 0kts
06-Sep-18 08:17 33.671201 -117.868019 211 60ft 0kts
06-Sep-18 08:18 33.671201 -117.868019 211 60ft 0kts
06-Sep-18 08:19 33.671201 -117.868019 211 60ft 0kts
06-Sep-18 08:20 33.671201 -117.868019 211 60ft 0kts
06-Sep-18 08:21 33.671201 -117.868019 211 60ft 0kts
06-Sep-18 08:22 33.671201 -117.868019 211 60ft 0kts
06-Sep-18 08:23 33.671201 -117.868019 211 60ft 0kts
06-Sep-18 08:24 33.671201 -117.868019 211 60ft 0kts
06-Sep-18 08:25 33.671201 -117.868019 211 60ft 0kts
06-Sep-18 08:26 33.671201 -117.868019 211 60ft 0kts
06-Sep-18 08:27 33.671201 -117.868019 211 60ft 0kts
06-Sep-18 08:28 33.671201 -117.868019 211 60ft 0kts
06-Sep-18 08:29 33.671201 -117.868019 211 60ft 0kts
06-Sep-18 08:30 33.671201 -117.868019 211 60ft 0kts
06-Sep-18 08:31 33.671201 -117.868019 211 60ft 0kts
06-Sep-18 08:32 33.671180 -117.868201 322 60ft 4kts
06-Sep-18 08:33 33.673295 -117.867011 33 60ft 7kts
06-Sep-18 08:34 33.675501 -117.866195 27 60ft 14kts
06-Sep-18 08:35 33.678772 -117.864132 27 60ft 12kts
06-Sep-18 08:36 33.679937 -117.863573 299 60ft 0kts
06-Sep-18 08:37 33.680587 -117.865029 298 60ft 7kts
06-Sep-18 08:38 33.668211 -117.873358 199 261ft 125kts
06-Sep-18 08:39 33.626703 -117.885230 185 1686ft 180kts
06-Sep-18 08:40 33.575442 -117.893465 185 3503ft 190kts
06-Sep-18 08:41 33.523275 -117.901824 185 5346ft 191kts
06-Sep-18 08:42 33.478251 -117.930841 255 7047ft 204kts
06-Sep-18 08:43 33.466708 -118.006384 255 7092ft 247kts
06-Sep-18 08:44 33.449931 -118.084653 254 7183ft 237kts
06-Sep-18 08:45 33.433514 -118.158245 254 8375ft 224kts
06-Sep-18 08:46 33.417501 -118.229850 254 9570ft 222kts
06-Sep-18 08:47 33.401551 -118.301005 254 10764ft 222kts
06-Sep-18 08:48 33.385524 -118.372341 254 11961ft 223kts
06-Sep-18 08:49 33.396474 -118.437082 323 13161ft 223kts
06-Sep-18 08:50 33.446851 -118.480751 326 14359ft 226kts
06-Sep-18 08:51 33.498262 -118.524212 327 15561ft 229kts
06-Sep-18 08:52 33.550646 -118.568472 327 16513ft 240kts
06-Sep-18 08:53 33.608427 -118.617246 327 16520ft 263kts
06-Sep-18 08:54 33.668352 -118.668055 326 16517ft 268kts
06-Sep-18 08:55 33.729184 -118.719740 326 16517ft 269kts
06-Sep-18 08:56 33.790218 -118.771690 326 16489ft 270kts
06-Sep-18 08:57 33.851525 -118.823963 326 16480ft 270kts
06-Sep-18 08:58 33.903555 -118.868401 326 16480ft 269kts
06-Sep-18 08:59 33.964661 -118.920675 326 16480ft 269kts
06-Sep-18 09:00 34.025564 -118.972869 326 16480ft 269kts
06-Sep-18 09:01 34.086245 -119.024967 326 16480ft 269kts
06-Sep-18 09:02 34.146604 -119.075699 327 16481ft 269kts
06-Sep-18 09:03 34.208391 -119.126598 327 16481ft 269kts
06-Sep-18 09:04 34.269956 -119.177414 327 16482ft 269kts
06-Sep-18 09:05 34.331687 -119.228460 327 16482ft 269kts
06-Sep-18 09:06 34.393317 -119.279514 327 16482ft 269kts
06-Sep-18 09:07 34.454751 -119.330499 327 16482ft 269kts
06-Sep-18 09:08 34.516291 -119.381666 327 16482ft 269kts
06-Sep-18 09:09 34.577863 -119.432952 327 16482ft 269kts
06-Sep-18 09:10 34.639702 -119.484555 327 16482ft 269kts
06-Sep-18 09:11 34.701150 -119.535927 327 16482ft 270kts
06-Sep-18 09:12 34.762851 -119.587604 327 16482ft 270kts
06-Sep-18 09:13 34.824371 -119.639227 327 16482ft 270kts
06-Sep-18 09:14 34.885746 -119.690818 327 16480ft 269kts
06-Sep-18 09:15 34.947013 -119.742418 327 16480ft 269kts
06-Sep-18 09:16 35.008366 -119.794185 327 16480ft 269kts
06-Sep-18 09:16 35.059677 -119.837554 327 16480ft 269kts
06-Sep-18 09:18 35.131747 -119.894914 330 16481ft 269kts
06-Sep-18 09:19 35.195351 -119.942786 330 16481ft 269kts
06-Sep-18 09:20 35.246685 -119.981507 330 16481ft 269kts
06-Sep-18 09:20 35.299604 -120.021484 330 16481ft 269kts
06-Sep-18 09:22 35.372562 -120.079758 328 16481ft 269kts
06-Sep-18 09:23 35.434402 -120.130751 328 16481ft 269kts
06-Sep-18 09:23 35.486096 -120.173561 328 16481ft 269kts
06-Sep-18 09:24 35.548018 -120.224786 328 16481ft 269kts
06-Sep-18 09:25 35.593862 -120.262686 325 16491ft 271kts
06-Sep-18 09:26 35.656990 -120.315152 324 16502ft 279kts
06-Sep-18 09:27 35.721676 -120.368924 324 16044ft 279kts
06-Sep-18 09:28 35.784747 -120.421487 324 15447ft 271kts
06-Sep-18 09:29 35.846757 -120.473311 324 14854ft 268kts
06-Sep-18 09:30 35.908191 -120.524756 325 14265ft 267kts
06-Sep-18 09:31 35.969126 -120.575820 325 13676ft 265kts
06-Sep-18 09:32 36.030371 -120.627248 325 13090ft 267kts
06-Sep-18 09:33 36.091602 -120.678744 325 12498ft 266kts
06-Sep-18 09:34 36.151309 -120.729065 325 11904ft 264kts
06-Sep-18 09:35 36.211244 -120.779683 325 11297ft 260kts
06-Sep-18 09:36 36.270210 -120.829548 325 10692ft 252kts
06-Sep-18 09:37 36.326102 -120.876917 326 10171ft 237kts
06-Sep-18 09:38 36.379951 -120.922667 326 9671ft 239kts
06-Sep-18 09:39 36.435081 -120.969525 326 9171ft 240kts
06-Sep-18 09:40 36.489839 -121.016160 326 8672ft 240kts
06-Sep-18 09:41 36.544336 -121.062553 326 8117ft 237kts
06-Sep-18 09:42 36.579055 -121.115744 247 7533ft 199kts
06-Sep-18 09:43 36.549241 -121.167224 231 6955ft 187kts
06-Sep-18 09:44 36.517617 -121.215402 231 6384ft 186kts
06-Sep-18 09:45 36.487355 -121.261362 231 5903ft 179kts
06-Sep-18 09:46 36.459040 -121.304309 231 5458ft 181kts
06-Sep-18 09:47 36.429051 -121.351628 252 4971ft 178kts
06-Sep-18 09:48 36.451086 -121.400218 312 4482ft 169kts
06-Sep-18 09:49 36.481242 -121.440044 314 4285ft 117kts
06-Sep-18 09:50 36.502153 -121.467625 313 4069ft 119kts
06-Sep-18 09:51 36.522057 -121.493774 313 3494ft 101kts
06-Sep-18 09:52 36.546671 -121.515008 328 2878ft 113kts
06-Sep-18 09:53 36.573196 -121.535655 328 2215ft 114kts
06-Sep-18 09:54 36.600047 -121.556581 328 1548ft 115kts
06-Sep-18 09:55 36.625383 -121.576403 326 917ft 99kts
06-Sep-18 09:56 36.647950 -121.593813 327 327ft 94kts
06-Sep-18 09:57 36.666202 -121.608142 325 76ft 31kts
06-Sep-18 09:58 36.666359 -121.610687 212 75ft 11kts
06-Sep-18 09:59 36.665668 -121.611414 327 74ft 0kts
06-Sep-18 10:00 36.665667 -121.611414 327 74ft 0kts
06-Sep-18 10:01 36.665667 -121.611414 327 74ft 0kts
06-Sep-18 10:03 36.665667 -121.611414 327 74ft 0kts
06-Sep-18 10:04 36.665667 -121.611414 327 74ft 0kts
06-Sep-18 10:05 36.665667 -121.611414 327 74ft 0kts
06-Sep-18 10:06 36.665667 -121.611414 327 74ft 0kts
06-Sep-18 10:07 36.665667 -121.611414 327 74ft 0kts
06-Sep-18 10:08 36.665667 -121.611414 327 74ft 0kts
06-Sep-18 10:09 36.665667 -121.611414 327 74ft 0kts
06-Sep-18 10:10 36.665667 -121.611414 327 74ft 0kts
06-Sep-18 10:11 36.665667 -121.611414 327 74ft 0kts
06-Sep-18 10:12 36.665667 -121.611414 327 74ft 0kts

Navigation Log

Ident Type
Flight plan parsing failed, navigation log unavailable